sensor_id;sensor_type;location;lat;lon;timestamp;temperature;humidity
12043;DHT22;6082;49.306;12.862;2023-08-24T00:01:42;19.90;99.90
12043;DHT22;6082;49.306;12.862;2023-08-24T00:04:08;19.90;99.90
12043;DHT22;6082;49.306;12.862;2023-08-24T00:06:34;19.80;99.90
12043;DHT22;6082;49.306;12.862;2023-08-24T00:08:59;19.80;99.90
12043;DHT22;6082;49.306;12.862;2023-08-24T00:11:25;19.80;99.90
12043;DHT22;6082;49.306;12.862;2023-08-24T00:13:51;19.70;99.90
12043;DHT22;6082;49.306;12.862;2023-08-24T00:16:18;19.70;99.90
12043;DHT22;6082;49.306;12.862;2023-08-24T00:18:45;19.70;99.90
12043;DHT22;6082;49.306;12.862;2023-08-24T00:21:13;19.60;99.90
12043;DHT22;6082;49.306;12.862;2023-08-24T00:23:38;19.50;99.90
12043;DHT22;6082;49.306;12.862;2023-08-24T00:26:04;19.40;99.90
12043;DHT22;6082;49.306;12.862;2023-08-24T00:28:30;19.30;99.90
12043;DHT22;6082;49.306;12.862;2023-08-24T00:30:55;19.30;99.90
12043;DHT22;6082;49.306;12.862;2023-08-24T00:33:21;19.30;99.90
12043;DHT22;6082;49.306;12.862;2023-08-24T00:35:47;19.40;99.90
12043;DHT22;6082;49.306;12.862;2023-08-24T00:38:13;19.30;99.90
12043;DHT22;6082;49.306;12.862;2023-08-24T00:40:43;19.30;99.90
12043;DHT22;6082;49.306;12.862;2023-08-24T00:43:09;19.30;99.90
12043;DHT22;6082;49.306;12.862;2023-08-24T00:45:35;19.30;99.90
12043;DHT22;6082;49.306;12.862;2023-08-24T00:48:02;19.30;99.90
12043;DHT22;6082;49.306;12.862;2023-08-24T00:50:28;19.30;99.90
12043;DHT22;6082;49.306;12.862;2023-08-24T00:52:54;19.30;99.90
12043;DHT22;6082;49.306;12.862;2023-08-24T00:55:20;19.20;99.90
12043;DHT22;6082;49.306;12.862;2023-08-24T00:57:47;19.20;99.90
12043;DHT22;6082;49.306;12.862;2023-08-24T01:00:14;19.20;99.90
12043;DHT22;6082;49.306;12.862;2023-08-24T01:02:40;19.10;99.90
12043;DHT22;6082;49.306;12.862;2023-08-24T01:05:06;19.10;99.90
12043;DHT22;6082;49.306;12.862;2023-08-24T01:07:38;19.10;99.90
12043;DHT22;6082;49.306;12.862;2023-08-24T01:10:08;19.10;99.90
12043;DHT22;6082;49.306;12.862;2023-08-24T01:15:19;18.90;99.90
12043;DHT22;6082;49.306;12.862;2023-08-24T01:17:50;19.00;99.90
12043;DHT22;6082;49.306;12.862;2023-08-24T01:20:17;18.90;99.90
12043;DHT22;6082;49.306;12.862;2023-08-24T01:25:40;18.90;99.90
12043;DHT22;6082;49.306;12.862;2023-08-24T01:28:09;18.90;99.90
12043;DHT22;6082;49.306;12.862;2023-08-24T01:30:38;18.90;99.90
12043;DHT22;6082;49.306;12.862;2023-08-24T01:33:04;18.80;99.90
12043;DHT22;6082;49.306;12.862;2023-08-24T01:35:31;18.80;99.90
12043;DHT22;6082;49.306;12.862;2023-08-24T01:37:58;18.80;99.90
12043;DHT22;6082;49.306;12.862;2023-08-24T01:43:18;18.70;99.90
12043;DHT22;6082;49.306;12.862;2023-08-24T01:45:45;18.70;99.90
12043;DHT22;6082;49.306;12.862;2023-08-24T01:48:12;18.70;99.90
12043;DHT22;6082;49.306;12.862;2023-08-24T01:50:39;18.60;99.90
12043;DHT22;6082;49.306;12.862;2023-08-24T01:53:05;18.60;99.90
12043;DHT22;6082;49.306;12.862;2023-08-24T01:55:31;18.50;99.90
12043;DHT22;6082;49.306;12.862;2023-08-24T01:57:57;18.50;99.90
12043;DHT22;6082;49.306;12.862;2023-08-24T02:00:23;18.50;99.90
12043;DHT22;6082;49.306;12.862;2023-08-24T02:02:49;18.50;99.90
12043;DHT22;6082;49.306;12.862;2023-08-24T02:05:15;18.50;99.90
12043;DHT22;6082;49.306;12.862;2023-08-24T02:07:40;18.40;99.90
12043;DHT22;6082;49.306;12.862;2023-08-24T02:10:06;18.40;99.90
12043;DHT22;6082;49.306;12.862;2023-08-24T02:12:32;18.40;99.90
12043;DHT22;6082;49.306;12.862;2023-08-24T02:14:58;18.40;99.90
12043;DHT22;6082;49.306;12.862;2023-08-24T02:17:24;18.30;99.90
12043;DHT22;6082;49.306;12.862;2023-08-24T02:19:49;18.30;99.90
12043;DHT22;6082;49.306;12.862;2023-08-24T02:22:15;18.30;99.90
12043;DHT22;6082;49.306;12.862;2023-08-24T02:24:41;18.20;99.90
12043;DHT22;6082;49.306;12.862;2023-08-24T02:27:07;18.20;99.90
12043;DHT22;6082;49.306;12.862;2023-08-24T02:29:32;18.20;99.90
12043;DHT22;6082;49.306;12.862;2023-08-24T02:31:58;18.10;99.90
12043;DHT22;6082;49.306;12.862;2023-08-24T02:34:24;18.10;99.90
12043;DHT22;6082;49.306;12.862;2023-08-24T02:36:50;18.10;99.90
12043;DHT22;6082;49.306;12.862;2023-08-24T02:39:15;18.10;99.90
12043;DHT22;6082;49.306;12.862;2023-08-24T02:41:41;18.10;99.90
12043;DHT22;6082;49.306;12.862;2023-08-24T02:44:07;18.00;99.90
12043;DHT22;6082;49.306;12.862;2023-08-24T02:46:33;18.00;99.90
12043;DHT22;6082;49.306;12.862;2023-08-24T02:48:59;18.00;99.90
12043;DHT22;6082;49.306;12.862;2023-08-24T02:51:24;17.90;99.90
12043;DHT22;6082;49.306;12.862;2023-08-24T02:53:50;17.90;99.90
12043;DHT22;6082;49.306;12.862;2023-08-24T02:56:16;17.90;99.90
12043;DHT22;6082;49.306;12.862;2023-08-24T02:58:42;17.90;99.90
12043;DHT22;6082;49.306;12.862;2023-08-24T03:01:08;17.80;99.90
12043;DHT22;6082;49.306;12.862;2023-08-24T03:03:34;17.80;99.90
12043;DHT22;6082;49.306;12.862;2023-08-24T03:06:02;17.80;99.90
12043;DHT22;6082;49.306;12.862;2023-08-24T03:08:29;17.70;99.90
12043;DHT22;6082;49.306;12.862;2023-08-24T03:10:56;17.70;99.90
12043;DHT22;6082;49.306;12.862;2023-08-24T03:13:25;17.70;99.90
12043;DHT22;6082;49.306;12.862;2023-08-24T03:15:51;17.70;99.90
12043;DHT22;6082;49.306;12.862;2023-08-24T03:18:18;17.60;99.90
12043;DHT22;6082;49.306;12.862;2023-08-24T03:20:45;17.60;99.90
12043;DHT22;6082;49.306;12.862;2023-08-24T03:23:11;17.60;99.90
12043;DHT22;6082;49.306;12.862;2023-08-24T03:25:38;17.60;99.90
12043;DHT22;6082;49.306;12.862;2023-08-24T03:28:06;17.60;99.90
12043;DHT22;6082;49.306;12.862;2023-08-24T03:30:33;17.50;99.90
12043;DHT22;6082;49.306;12.862;2023-08-24T03:32:59;17.50;99.90
12043;DHT22;6082;49.306;12.862;2023-08-24T03:35:25;17.50;99.90
12043;DHT22;6082;49.306;12.862;2023-08-24T03:37:51;17.50;99.90
12043;DHT22;6082;49.306;12.862;2023-08-24T03:40:17;17.50;99.90
12043;DHT22;6082;49.306;12.862;2023-08-24T03:42:42;17.50;99.90
12043;DHT22;6082;49.306;12.862;2023-08-24T03:45:08;17.40;99.90
12043;DHT22;6082;49.306;12.862;2023-08-24T03:47:34;17.40;99.90
12043;DHT22;6082;49.306;12.862;2023-08-24T03:50:00;17.40;99.90
12043;DHT22;6082;49.306;12.862;2023-08-24T03:52:26;17.30;99.90
12043;DHT22;6082;49.306;12.862;2023-08-24T03:54:52;17.30;99.90
12043;DHT22;6082;49.306;12.862;2023-08-24T03:57:18;17.30;99.90
12043;DHT22;6082;49.306;12.862;2023-08-24T03:59:43;17.30;99.90
12043;DHT22;6082;49.306;12.862;2023-08-24T04:02:09;17.30;99.90
12043;DHT22;6082;49.306;12.862;2023-08-24T04:04:35;17.20;99.90
12043;DHT22;6082;49.306;12.862;2023-08-24T04:07:01;17.20;99.90
12043;DHT22;6082;49.306;12.862;2023-08-24T04:09:28;17.20;99.90
12043;DHT22;6082;49.306;12.862;2023-08-24T04:11:53;17.20;99.90
12043;DHT22;6082;49.306;12.862;2023-08-24T04:14:19;17.20;99.90
12043;DHT22;6082;49.306;12.862;2023-08-24T04:16:45;17.10;99.90
12043;DHT22;6082;49.306;12.862;2023-08-24T04:19:14;17.10;99.90
12043;DHT22;6082;49.306;12.862;2023-08-24T04:21:39;17.10;99.90
12043;DHT22;6082;49.306;12.862;2023-08-24T04:24:05;17.10;99.90
12043;DHT22;6082;49.306;12.862;2023-08-24T04:26:31;17.10;99.90
12043;DHT22;6082;49.306;12.862;2023-08-24T04:28:57;17.10;99.90
12043;DHT22;6082;49.306;12.862;2023-08-24T04:31:23;17.10;99.90
12043;DHT22;6082;49.306;12.862;2023-08-24T04:33:49;17.10;99.90
12043;DHT22;6082;49.306;12.862;2023-08-24T04:36:14;17.00;99.90
12043;DHT22;6082;49.306;12.862;2023-08-24T04:38:40;17.10;99.90
12043;DHT22;6082;49.306;12.862;2023-08-24T04:41:08;17.10;99.90
12043;DHT22;6082;49.306;12.862;2023-08-24T04:43:34;17.10;99.90
12043;DHT22;6082;49.306;12.862;2023-08-24T04:46:02;17.00;99.90
12043;DHT22;6082;49.306;12.862;2023-08-24T04:48:27;17.00;99.90
12043;DHT22;6082;49.306;12.862;2023-08-24T04:50:58;17.00;99.90
12043;DHT22;6082;49.306;12.862;2023-08-24T04:53:24;17.00;99.90
12043;DHT22;6082;49.306;12.862;2023-08-24T04:55:50;17.00;99.90
12043;DHT22;6082;49.306;12.862;2023-08-24T04:58:16;17.00;99.90
12043;DHT22;6082;49.306;12.862;2023-08-24T05:00:42;17.00;99.90
12043;DHT22;6082;49.306;12.862;2023-08-24T05:03:08;17.00;99.90
12043;DHT22;6082;49.306;12.862;2023-08-24T05:05:35;17.00;99.90
12043;DHT22;6082;49.306;12.862;2023-08-24T05:08:02;17.00;99.90
12043;DHT22;6082;49.306;12.862;2023-08-24T05:10:33;17.00;99.90
12043;DHT22;6082;49.306;12.862;2023-08-24T05:12:59;17.00;99.90
12043;DHT22;6082;49.306;12.862;2023-08-24T05:15:25;17.00;99.90
12043;DHT22;6082;49.306;12.862;2023-08-24T05:17:51;17.00;99.90
12043;DHT22;6082;49.306;12.862;2023-08-24T05:20:22;17.00;99.90
12043;DHT22;6082;49.306;12.862;2023-08-24T05:22:48;17.10;99.90
12043;DHT22;6082;49.306;12.862;2023-08-24T05:25:13;17.10;99.90
12043;DHT22;6082;49.306;12.862;2023-08-24T05:27:42;17.10;99.90
12043;DHT22;6082;49.306;12.862;2023-08-24T05:30:08;17.10;99.90
12043;DHT22;6082;49.306;12.862;2023-08-24T05:32:34;17.20;99.90
12043;DHT22;6082;49.306;12.862;2023-08-24T05:35:07;17.20;99.90
12043;DHT22;6082;49.306;12.862;2023-08-24T05:37:33;17.20;99.90
12043;DHT22;6082;49.306;12.862;2023-08-24T05:40:00;17.30;99.90
12043;DHT22;6082;49.306;12.862;2023-08-24T05:42:26;17.30;99.90
12043;DHT22;6082;49.306;12.862;2023-08-24T05:44:52;17.40;99.90
12043;DHT22;6082;49.306;12.862;2023-08-24T05:47:18;17.40;99.90
12043;DHT22;6082;49.306;12.862;2023-08-24T05:49:44;17.40;99.90
12043;DHT22;6082;49.306;12.862;2023-08-24T05:52:09;17.50;99.90
12043;DHT22;6082;49.306;12.862;2023-08-24T05:54:38;17.50;99.90
12043;DHT22;6082;49.306;12.862;2023-08-24T05:57:04;17.60;99.90
12043;DHT22;6082;49.306;12.862;2023-08-24T05:59:31;17.70;99.90
12043;DHT22;6082;49.306;12.862;2023-08-24T06:01:57;17.70;99.90
12043;DHT22;6082;49.306;12.862;2023-08-24T06:04:22;17.70;99.90
12043;DHT22;6082;49.306;12.862;2023-08-24T06:06:48;17.80;99.90
12043;DHT22;6082;49.306;12.862;2023-08-24T06:09:14;17.80;99.90
12043;DHT22;6082;49.306;12.862;2023-08-24T06:11:42;17.90;99.90
12043;DHT22;6082;49.306;12.862;2023-08-24T06:14:08;18.00;99.90
12043;DHT22;6082;49.306;12.862;2023-08-24T06:16:33;18.00;99.90
12043;DHT22;6082;49.306;12.862;2023-08-24T06:18:59;18.00;99.90
12043;DHT22;6082;49.306;12.862;2023-08-24T06:21:25;18.00;99.90
12043;DHT22;6082;49.306;12.862;2023-08-24T06:23:51;18.00;99.90
12043;DHT22;6082;49.306;12.862;2023-08-24T06:26:17;18.10;99.90
12043;DHT22;6082;49.306;12.862;2023-08-24T06:28:43;18.20;99.90
12043;DHT22;6082;49.306;12.862;2023-08-24T06:31:09;18.20;99.90
12043;DHT22;6082;49.306;12.862;2023-08-24T06:33:35;18.30;99.90
12043;DHT22;6082;49.306;12.862;2023-08-24T06:36:02;18.40;99.90
12043;DHT22;6082;49.306;12.862;2023-08-24T06:38:30;18.60;99.90
12043;DHT22;6082;49.306;12.862;2023-08-24T06:40:58;18.70;99.90
12043;DHT22;6082;49.306;12.862;2023-08-24T06:43:24;18.80;99.90
12043;DHT22;6082;49.306;12.862;2023-08-24T06:45:50;18.80;99.90
12043;DHT22;6082;49.306;12.862;2023-08-24T06:48:16;18.90;99.90
12043;DHT22;6082;49.306;12.862;2023-08-24T06:50:43;18.90;99.90
12043;DHT22;6082;49.306;12.862;2023-08-24T06:53:09;19.00;99.90
12043;DHT22;6082;49.306;12.862;2023-08-24T06:55:35;19.10;99.90
12043;DHT22;6082;49.306;12.862;2023-08-24T06:58:02;19.10;99.90
12043;DHT22;6082;49.306;12.862;2023-08-24T07:00:30;19.20;99.90
12043;DHT22;6082;49.306;12.862;2023-08-24T07:02:56;19.30;99.90
12043;DHT22;6082;49.306;12.862;2023-08-24T07:05:23;19.40;99.90
12043;DHT22;6082;49.306;12.862;2023-08-24T07:07:52;19.50;99.90
12043;DHT22;6082;49.306;12.862;2023-08-24T07:10:19;19.60;99.90
12043;DHT22;6082;49.306;12.862;2023-08-24T07:12:45;19.60;99.90
12043;DHT22;6082;49.306;12.862;2023-08-24T07:15:11;19.70;99.90
12043;DHT22;6082;49.306;12.862;2023-08-24T07:17:37;19.90;99.90
12043;DHT22;6082;49.306;12.862;2023-08-24T07:20:04;20.00;99.90
12043;DHT22;6082;49.306;12.862;2023-08-24T07:22:39;20.10;99.90
12043;DHT22;6082;49.306;12.862;2023-08-24T07:25:05;20.20;99.90
12043;DHT22;6082;49.306;12.862;2023-08-24T07:27:35;20.40;99.90
12043;DHT22;6082;49.306;12.862;2023-08-24T07:30:01;20.50;99.90
12043;DHT22;6082;49.306;12.862;2023-08-24T07:32:31;20.70;99.90
12043;DHT22;6082;49.306;12.862;2023-08-24T07:34:57;20.80;99.90
12043;DHT22;6082;49.306;12.862;2023-08-24T07:37:25;20.90;99.90
12043;DHT22;6082;49.306;12.862;2023-08-24T07:39:51;21.00;99.90
12043;DHT22;6082;49.306;12.862;2023-08-24T07:42:20;21.10;99.90
12043;DHT22;6082;49.306;12.862;2023-08-24T07:44:46;21.30;99.90
12043;DHT22;6082;49.306;12.862;2023-08-24T07:47:11;21.30;99.90
12043;DHT22;6082;49.306;12.862;2023-08-24T07:49:37;21.40;99.90
12043;DHT22;6082;49.306;12.862;2023-08-24T07:52:08;21.50;99.90
12043;DHT22;6082;49.306;12.862;2023-08-24T07:54:37;21.70;99.90
12043;DHT22;6082;49.306;12.862;2023-08-24T07:57:04;21.80;99.90
12043;DHT22;6082;49.306;12.862;2023-08-24T07:59:30;21.90;99.90
12043;DHT22;6082;49.306;12.862;2023-08-24T08:01:55;22.00;99.90
12043;DHT22;6082;49.306;12.862;2023-08-24T08:04:21;22.10;99.90
12043;DHT22;6082;49.306;12.862;2023-08-24T08:06:47;22.20;99.90
12043;DHT22;6082;49.306;12.862;2023-08-24T08:09:12;22.30;99.90
12043;DHT22;6082;49.306;12.862;2023-08-24T08:11:38;22.40;99.90
12043;DHT22;6082;49.306;12.862;2023-08-24T08:14:04;22.50;99.90
12043;DHT22;6082;49.306;12.862;2023-08-24T08:16:30;22.60;99.90
12043;DHT22;6082;49.306;12.862;2023-08-24T08:18:56;22.70;99.90
12043;DHT22;6082;49.306;12.862;2023-08-24T08:21:21;22.80;99.90
12043;DHT22;6082;49.306;12.862;2023-08-24T08:23:49;23.00;99.90
12043;DHT22;6082;49.306;12.862;2023-08-24T08:26:16;23.10;99.90
12043;DHT22;6082;49.306;12.862;2023-08-24T08:28:42;23.30;99.90
12043;DHT22;6082;49.306;12.862;2023-08-24T08:31:07;23.50;99.90
12043;DHT22;6082;49.306;12.862;2023-08-24T08:33:33;23.50;99.90
12043;DHT22;6082;49.306;12.862;2023-08-24T08:35:59;23.40;99.90
12043;DHT22;6082;49.306;12.862;2023-08-24T08:38:25;23.40;99.90
12043;DHT22;6082;49.306;12.862;2023-08-24T08:40:54;23.40;99.90
12043;DHT22;6082;49.306;12.862;2023-08-24T08:43:22;23.40;99.90
12043;DHT22;6082;49.306;12.862;2023-08-24T08:45:52;23.50;99.90
12043;DHT22;6082;49.306;12.862;2023-08-24T08:48:21;23.50;99.90
12043;DHT22;6082;49.306;12.862;2023-08-24T08:50:51;23.50;99.90
12043;DHT22;6082;49.306;12.862;2023-08-24T08:53:22;23.50;99.90
12043;DHT22;6082;49.306;12.862;2023-08-24T08:55:54;23.60;99.90
12043;DHT22;6082;49.306;12.862;2023-08-24T08:58:21;23.80;99.90
12043;DHT22;6082;49.306;12.862;2023-08-24T09:00:47;23.90;99.90
12043;DHT22;6082;49.306;12.862;2023-08-24T09:03:15;23.90;99.90
12043;DHT22;6082;49.306;12.862;2023-08-24T09:05:42;23.90;99.90
12043;DHT22;6082;49.306;12.862;2023-08-24T09:08:08;23.90;99.90
12043;DHT22;6082;49.306;12.862;2023-08-24T09:10:34;24.00;99.90
12043;DHT22;6082;49.306;12.862;2023-08-24T09:13:00;24.00;99.90
12043;DHT22;6082;49.306;12.862;2023-08-24T09:15:26;24.10;99.90
12043;DHT22;6082;49.306;12.862;2023-08-24T09:17:54;24.20;99.90
12043;DHT22;6082;49.306;12.862;2023-08-24T09:20:20;24.30;99.90
12043;DHT22;6082;49.306;12.862;2023-08-24T09:22:46;24.40;99.90
12043;DHT22;6082;49.306;12.862;2023-08-24T09:25:12;24.60;99.90
12043;DHT22;6082;49.306;12.862;2023-08-24T09:27:38;24.80;99.90
12043;DHT22;6082;49.306;12.862;2023-08-24T09:30:04;25.00;99.90
12043;DHT22;6082;49.306;12.862;2023-08-24T09:32:31;25.00;99.90
12043;DHT22;6082;49.306;12.862;2023-08-24T09:35:23;25.20;99.90
12043;DHT22;6082;49.306;12.862;2023-08-24T09:37:50;25.30;99.90
12043;DHT22;6082;49.306;12.862;2023-08-24T09:40:15;25.40;99.90
12043;DHT22;6082;49.306;12.862;2023-08-24T09:42:43;25.50;99.90
12043;DHT22;6082;49.306;12.862;2023-08-24T09:45:11;25.50;99.90
12043;DHT22;6082;49.306;12.862;2023-08-24T09:47:38;25.60;99.90
12043;DHT22;6082;49.306;12.862;2023-08-24T09:50:04;25.70;99.90
12043;DHT22;6082;49.306;12.862;2023-08-24T09:52:34;25.70;99.90
12043;DHT22;6082;49.306;12.862;2023-08-24T09:55:07;25.70;99.90
12043;DHT22;6082;49.306;12.862;2023-08-24T09:57:38;25.80;99.90
12043;DHT22;6082;49.306;12.862;2023-08-24T10:00:08;25.90;99.90
12043;DHT22;6082;49.306;12.862;2023-08-24T10:02:50;25.90;99.90
12043;DHT22;6082;49.306;12.862;2023-08-24T10:05:20;26.10;99.90
12043;DHT22;6082;49.306;12.862;2023-08-24T10:07:52;26.10;99.90
12043;DHT22;6082;49.306;12.862;2023-08-24T10:10:20;26.20;99.90
12043;DHT22;6082;49.306;12.862;2023-08-24T10:12:59;26.30;99.90
12043;DHT22;6082;49.306;12.862;2023-08-24T10:15:26;26.40;99.90
12043;DHT22;6082;49.306;12.862;2023-08-24T10:17:52;26.50;99.90
12043;DHT22;6082;49.306;12.862;2023-08-24T10:20:19;26.60;99.90
12043;DHT22;6082;49.306;12.862;2023-08-24T10:22:46;26.70;99.90
12043;DHT22;6082;49.306;12.862;2023-08-24T10:25:13;26.70;99.90
12043;DHT22;6082;49.306;12.862;2023-08-24T10:27:40;26.80;99.90
12043;DHT22;6082;49.306;12.862;2023-08-24T10:30:13;26.90;99.90
12043;DHT22;6082;49.306;12.862;2023-08-24T10:32:40;26.90;99.90
12043;DHT22;6082;49.306;12.862;2023-08-24T10:35:06;27.00;99.90
12043;DHT22;6082;49.306;12.862;2023-08-24T10:37:36;27.10;99.90
12043;DHT22;6082;49.306;12.862;2023-08-24T10:40:01;27.20;99.90
12043;DHT22;6082;49.306;12.862;2023-08-24T10:42:45;27.10;99.90
12043;DHT22;6082;49.306;12.862;2023-08-24T10:45:14;27.20;99.10
12043;DHT22;6082;49.306;12.862;2023-08-24T10:47:46;27.10;96.10
12043;DHT22;6082;49.306;12.862;2023-08-24T10:50:12;27.20;98.10
12043;DHT22;6082;49.306;12.862;2023-08-24T10:52:43;27.30;98.00
12043;DHT22;6082;49.306;12.862;2023-08-24T10:55:26;27.40;95.20
12043;DHT22;6082;49.306;12.862;2023-08-24T10:58:15;27.50;98.90
12043;DHT22;6082;49.306;12.862;2023-08-24T11:00:48;27.60;96.60
12043;DHT22;6082;49.306;12.862;2023-08-24T11:03:33;27.70;98.50
12043;DHT22;6082;49.306;12.862;2023-08-24T11:05:59;27.80;99.20
12043;DHT22;6082;49.306;12.862;2023-08-24T11:08:44;27.70;95.90
12043;DHT22;6082;49.306;12.862;2023-08-24T11:11:23;27.80;95.80
12043;DHT22;6082;49.306;12.862;2023-08-24T11:14:19;27.80;94.90
12043;DHT22;6082;49.306;12.862;2023-08-24T11:16:48;27.80;94.60
12043;DHT22;6082;49.306;12.862;2023-08-24T11:19:15;27.80;94.00
12043;DHT22;6082;49.306;12.862;2023-08-24T11:21:45;27.80;90.70
12043;DHT22;6082;49.306;12.862;2023-08-24T11:24:15;27.90;93.30
12043;DHT22;6082;49.306;12.862;2023-08-24T11:26:46;27.90;90.70
12043;DHT22;6082;49.306;12.862;2023-08-24T11:29:13;28.10;93.40
12043;DHT22;6082;49.306;12.862;2023-08-24T11:31:41;28.20;91.50
12043;DHT22;6082;49.306;12.862;2023-08-24T11:34:07;28.30;93.00
12043;DHT22;6082;49.306;12.862;2023-08-24T11:36:49;28.30;90.50
12043;DHT22;6082;49.306;12.862;2023-08-24T11:39:20;28.50;91.70
12043;DHT22;6082;49.306;12.862;2023-08-24T11:44:28;28.70;92.20
12043;DHT22;6082;49.306;12.862;2023-08-24T11:46:58;28.60;90.60
12043;DHT22;6082;49.306;12.862;2023-08-24T11:49:24;28.60;90.00
12043;DHT22;6082;49.306;12.862;2023-08-24T11:51:51;28.60;91.10
12043;DHT22;6082;49.306;12.862;2023-08-24T11:54:20;28.60;91.20
12043;DHT22;6082;49.306;12.862;2023-08-24T11:56:46;28.60;90.90
12043;DHT22;6082;49.306;12.862;2023-08-24T11:59:16;28.50;91.30
12043;DHT22;6082;49.306;12.862;2023-08-24T12:01:42;28.50;91.50
12043;DHT22;6082;49.306;12.862;2023-08-24T12:04:08;28.50;92.00
12043;DHT22;6082;49.306;12.862;2023-08-24T12:06:34;28.50;90.20
12043;DHT22;6082;49.306;12.862;2023-08-24T12:09:00;28.50;88.30
12043;DHT22;6082;49.306;12.862;2023-08-24T12:11:28;28.40;90.10
12043;DHT22;6082;49.306;12.862;2023-08-24T12:13:54;28.40;88.90
12043;DHT22;6082;49.306;12.862;2023-08-24T12:16:21;28.50;90.60
12043;DHT22;6082;49.306;12.862;2023-08-24T12:18:55;28.50;86.90
12043;DHT22;6082;49.306;12.862;2023-08-24T12:21:24;28.60;88.50
12043;DHT22;6082;49.306;12.862;2023-08-24T12:24:00;28.80;84.50
12043;DHT22;6082;49.306;12.862;2023-08-24T12:26:28;29.00;88.70
12043;DHT22;6082;49.306;12.862;2023-08-24T12:28:59;29.00;85.10
12043;DHT22;6082;49.306;12.862;2023-08-24T12:31:29;29.10;85.50
12043;DHT22;6082;49.306;12.862;2023-08-24T12:34:07;29.10;81.10
12043;DHT22;6082;49.306;12.862;2023-08-24T12:36:37;29.30;78.20
12043;DHT22;6082;49.306;12.862;2023-08-24T12:39:07;29.40;81.20
12043;DHT22;6082;49.306;12.862;2023-08-24T12:41:36;29.50;79.50
12043;DHT22;6082;49.306;12.862;2023-08-24T12:44:02;29.50;79.60
12043;DHT22;6082;49.306;12.862;2023-08-24T12:46:31;29.40;76.80
12043;DHT22;6082;49.306;12.862;2023-08-24T12:48:57;29.40;78.50
12043;DHT22;6082;49.306;12.862;2023-08-24T12:51:23;29.50;81.70
12043;DHT22;6082;49.306;12.862;2023-08-24T12:53:51;29.60;81.70
12043;DHT22;6082;49.306;12.862;2023-08-24T12:56:17;29.60;78.40
12043;DHT22;6082;49.306;12.862;2023-08-24T12:58:43;29.80;79.60
12043;DHT22;6082;49.306;12.862;2023-08-24T13:01:10;29.90;84.00
12043;DHT22;6082;49.306;12.862;2023-08-24T13:03:36;29.80;78.10
12043;DHT22;6082;49.306;12.862;2023-08-24T13:06:02;29.90;81.80
12043;DHT22;6082;49.306;12.862;2023-08-24T13:08:30;29.90;76.40
12043;DHT22;6082;49.306;12.862;2023-08-24T13:10:56;29.90;79.00
12043;DHT22;6082;49.306;12.862;2023-08-24T13:13:21;30.00;81.60
12043;DHT22;6082;49.306;12.862;2023-08-24T13:15:51;30.10;83.30
12043;DHT22;6082;49.306;12.862;2023-08-24T13:18:17;30.20;85.40
12043;DHT22;6082;49.306;12.862;2023-08-24T13:20:43;30.30;82.00
12043;DHT22;6082;49.306;12.862;2023-08-24T13:23:09;30.40;86.30
12043;DHT22;6082;49.306;12.862;2023-08-24T13:25:34;30.40;81.90
12043;DHT22;6082;49.306;12.862;2023-08-24T13:28:00;30.50;83.50
12043;DHT22;6082;49.306;12.862;2023-08-24T13:30:26;30.40;79.60
12043;DHT22;6082;49.306;12.862;2023-08-24T13:32:53;30.40;78.60
12043;DHT22;6082;49.306;12.862;2023-08-24T13:35:18;30.30;76.90
12043;DHT22;6082;49.306;12.862;2023-08-24T13:37:44;30.40;78.40
12043;DHT22;6082;49.306;12.862;2023-08-24T13:40:10;30.30;79.00
12043;DHT22;6082;49.306;12.862;2023-08-24T13:42:36;30.30;78.90
12043;DHT22;6082;49.306;12.862;2023-08-24T13:45:01;30.30;76.70
12043;DHT22;6082;49.306;12.862;2023-08-24T13:47:28;30.30;73.80
12043;DHT22;6082;49.306;12.862;2023-08-24T13:49:54;30.20;70.60
12043;DHT22;6082;49.306;12.862;2023-08-24T13:52:20;30.30;72.30
12043;DHT22;6082;49.306;12.862;2023-08-24T13:54:48;30.20;70.50
12043;DHT22;6082;49.306;12.862;2023-08-24T13:57:14;30.30;74.00
12043;DHT22;6082;49.306;12.862;2023-08-24T13:59:40;30.30;76.20
12043;DHT22;6082;49.306;12.862;2023-08-24T14:02:06;30.30;69.80
12043;DHT22;6082;49.306;12.862;2023-08-24T14:04:32;30.30;73.80
12043;DHT22;6082;49.306;12.862;2023-08-24T14:06:58;30.30;72.90
12043;DHT22;6082;49.306;12.862;2023-08-24T14:09:23;30.30;71.60
12043;DHT22;6082;49.306;12.862;2023-08-24T14:11:49;30.30;73.70
12043;DHT22;6082;49.306;12.862;2023-08-24T14:14:15;30.30;71.00
12043;DHT22;6082;49.306;12.862;2023-08-24T14:16:41;30.30;67.70
12043;DHT22;6082;49.306;12.862;2023-08-24T14:19:07;30.30;71.50
12043;DHT22;6082;49.306;12.862;2023-08-24T14:21:32;30.40;72.50
12043;DHT22;6082;49.306;12.862;2023-08-24T14:23:58;30.40;67.70
12043;DHT22;6082;49.306;12.862;2023-08-24T14:26:24;30.40;68.30
12043;DHT22;6082;49.306;12.862;2023-08-24T14:28:55;30.50;69.40
12043;DHT22;6082;49.306;12.862;2023-08-24T14:31:23;30.50;75.40
12043;DHT22;6082;49.306;12.862;2023-08-24T14:33:49;30.60;73.20
12043;DHT22;6082;49.306;12.862;2023-08-24T14:36:16;30.60;70.90
12043;DHT22;6082;49.306;12.862;2023-08-24T14:38:42;30.60;74.20
12043;DHT22;6082;49.306;12.862;2023-08-24T14:41:12;30.60;75.20
12043;DHT22;6082;49.306;12.862;2023-08-24T14:43:39;30.50;73.10
12043;DHT22;6082;49.306;12.862;2023-08-24T14:46:05;30.50;74.40
12043;DHT22;6082;49.306;12.862;2023-08-24T14:48:31;30.40;73.60
12043;DHT22;6082;49.306;12.862;2023-08-24T14:50:57;30.40;76.20
12043;DHT22;6082;49.306;12.862;2023-08-24T14:53:23;30.40;75.90
12043;DHT22;6082;49.306;12.862;2023-08-24T14:55:49;30.30;75.50
12043;DHT22;6082;49.306;12.862;2023-08-24T14:58:15;30.30;78.50
12043;DHT22;6082;49.306;12.862;2023-08-24T15:00:40;30.30;80.50
12043;DHT22;6082;49.306;12.862;2023-08-24T15:03:06;30.30;78.90
12043;DHT22;6082;49.306;12.862;2023-08-24T15:05:42;30.30;80.60
12043;DHT22;6082;49.306;12.862;2023-08-24T15:08:07;30.30;81.60
12043;DHT22;6082;49.306;12.862;2023-08-24T15:10:33;30.20;81.50
12043;DHT22;6082;49.306;12.862;2023-08-24T15:12:59;30.20;81.90
12043;DHT22;6082;49.306;12.862;2023-08-24T15:15:24;30.20;82.10
12043;DHT22;6082;49.306;12.862;2023-08-24T15:17:50;30.20;83.20
12043;DHT22;6082;49.306;12.862;2023-08-24T15:20:16;30.20;83.80
12043;DHT22;6082;49.306;12.862;2023-08-24T15:22:42;30.20;83.00
12043;DHT22;6082;49.306;12.862;2023-08-24T15:25:08;30.20;82.80
12043;DHT22;6082;49.306;12.862;2023-08-24T15:27:36;30.30;82.40
12043;DHT22;6082;49.306;12.862;2023-08-24T15:30:03;30.50;81.70
12043;DHT22;6082;49.306;12.862;2023-08-24T15:32:31;30.60;82.60
12043;DHT22;6082;49.306;12.862;2023-08-24T15:34:57;30.60;83.70
12043;DHT22;6082;49.306;12.862;2023-08-24T15:37:23;30.70;84.90
12043;DHT22;6082;49.306;12.862;2023-08-24T15:39:49;30.70;85.70
12043;DHT22;6082;49.306;12.862;2023-08-24T15:42:15;30.70;86.40